Miraero Ace — 3FIH4 — position and weather

sailwx.info

Track history (hours):
 
Tides and Currents Weather Stations Pressure Air Temp Water Temp Dewpoint Dewpoint Depression Visibility Wind Speed Wind Dir Waves Ship Positions

Miraero Ace

Last reported at 2015-Feb-19 19:27 UTC. Time now 2015-Feb-28 06:53 UTC.
Position N 43°43' W 005°09'.
Warning: this ship's position is 8 days out of date.

Length 229 m; draft 8.4 m.

Type: Ship. MMSI: 373216000.

Date/timePositionNaut miles runAvg speedWind from/ knotsBaromVisibWave heightAir tempDewpointWater temp
2015-Feb-19 19:27N 43°43' W 005°09'1314.0
2015-Feb-19 18:33N 43°45' W 005°26'1414.1
2015-Feb-19 17:33N 43°47' W 005°46'1414.0
2015-Feb-19 16:33N 43°49' W 006°05'1614.2
2015-Feb-19 15:26N 43°50' W 006°27'1313.8
2015-Feb-19 14:31N 43°52' W 006°44'  
2015-Feb-13 03:26N 41°01' W 030°12'1313.5
2015-Feb-13 02:30N 40°59' W 030°29'1613.5
2015-Feb-13 01:17N 40°55' W 030°50'1213.7
2015-Feb-13 00:24N 40°52' W 031°06'1313.6
2015-Feb-12 23:27N 40°49' W 031°22'3213.7
2015-Feb-12 21:07N 40°42' W 032°03'913.8
2015-Feb-12 20:29N 40°40' W 032°15'  
Track history (hours):
 
Tides and Currents Weather Stations Pressure Air Temp Water Temp Dewpoint Dewpoint Depression Visibility Wind Speed Wind Dir Waves Ship Positions

Miraero Ace

Last reported at 2015-Feb-19 19:27 UTC. Time now 2015-Feb-28 06:53 UTC.
Position N 43°43' W 005°09'.
Warning: this ship's position is 8 days out of date.

Length 229 m; draft 8.4 m.

Type: Ship. MMSI: 373216000.

Date/timePositionNaut miles runAvg speedWind from/ knotsBaromVisibWave heightAir tempDewpointWater temp
2015-Feb-19 19:27N 43°43' W 005°09'1314.0
2015-Feb-19 18:33N 43°45' W 005°26'1414.1
2015-Feb-19 17:33N 43°47' W 005°46'1414.0
2015-Feb-19 16:33N 43°49' W 006°05'1614.2
2015-Feb-19 15:26N 43°50' W 006°27'1313.8
2015-Feb-19 14:31N 43°52' W 006°44'  
2015-Feb-13 03:26N 41°01' W 030°12'1313.5
2015-Feb-13 02:30N 40°59' W 030°29'1613.5
2015-Feb-13 01:17N 40°55' W 030°50'1213.7
2015-Feb-13 00:24N 40°52' W 031°06'1313.6
2015-Feb-12 23:27N 40°49' W 031°22'3213.7
2015-Feb-12 21:07N 40°42' W 032°03'913.8
2015-Feb-12 20:29N 40°40' W 032°15'  

Dump ship's entire track history